Time;durP1;ratioP1;P1;durP2;ratioP2;P2;SDS_P1;SDS_P2;PMS_P1;PMS_P2;Temp;Humidity;BMP_temperature;BMP_pressure;BME280_temperature;BME280_humidity;BME280_pressure;Samples;Min_cycle;Max_cycle;Signal;HPM_P1;HPM_P2
2021/03/19 00:01:19;;;;;;;9.57;5.43;;;4.50;95.40;;;;;;5065982;28;20540;-38
2021/03/19 00:03:44;;;;;;;9.23;5.05;;;4.40;95.40;;;;;;5066050;28;20084;-31
2021/03/19 00:06:10;;;;;;;7.95;4.43;;;4.40;95.50;;;;;;5065790;28;20047;-37
2021/03/19 00:08:35;;;;;;;8.25;4.95;;;4.30;95.50;;;;;;5065229;28;20365;-36
2021/03/19 00:11:02;;;;;;;9.85;6.13;;;4.30;95.60;;;;;;5066237;28;20108;-37
2021/03/19 00:13:27;;;;;;;9.30;5.63;;;4.30;95.60;;;;;;5065762;28;20794;-35
2021/03/19 00:15:53;;;;;;;8.27;5.20;;;4.20;95.70;;;;;;5065574;28;20024;-37
2021/03/19 00:18:18;;;;;;;13.02;7.20;;;4.20;95.70;;;;;;5064935;28;20073;-32
2021/03/19 00:20:46;;;;;;;10.55;6.72;;;4.20;95.70;;;;;;5062959;28;20028;-32
2021/03/19 00:23:12;;;;;;;8.45;5.80;;;4.20;95.80;;;;;;5064382;28;20032;-35
2021/03/19 00:25:38;;;;;;;8.48;5.40;;;4.10;95.90;;;;;;5065807;28;20422;-35
2021/03/19 00:28:05;;;;;;;8.85;5.72;;;4.10;95.80;;;;;;5065574;28;20115;-37
2021/03/19 00:30:31;;;;;;;7.35;4.90;;;4.00;95.90;;;;;;5054005;28;20025;-36
2021/03/19 00:32:57;;;;;;;8.63;5.18;;;4.00;95.90;;;;;;5065553;28;20463;-37
2021/03/19 00:35:23;;;;;;;8.52;5.88;;;3.90;95.90;;;;;;5065335;28;20127;-37
2021/03/19 00:37:49;;;;;;;8.07;5.13;;;3.90;96.00;;;;;;5064564;28;20129;-36
2021/03/19 00:40:18;;;;;;;7.35;5.28;;;3.80;96.00;;;;;;5064184;28;20032;-35
2021/03/19 00:42:43;;;;;;;7.00;5.05;;;3.80;96.10;;;;;;5064075;28;20103;-38
2021/03/19 00:45:12;;;;;;;8.73;5.03;;;3.80;96.20;;;;;;5064441;28;20123;-35
2021/03/19 00:47:40;;;;;;;7.80;4.82;;;3.70;96.20;;;;;;5065683;28;20504;-35
2021/03/19 00:50:13;;;;;;;7.97;5.93;;;3.70;96.20;;;;;;5063972;28;20163;-37
2021/03/19 00:52:41;;;;;;;6.18;4.88;;;3.70;96.30;;;;;;5045368;28;20085;-43
2021/03/19 00:55:12;;;;;;;7.80;5.15;;;3.60;96.30;;;;;;5059715;28;20110;-34
2021/03/19 00:57:37;;;;;;;10.60;5.68;;;3.60;96.30;;;;;;5064259;28;20476;-35
2021/03/19 01:00:05;;;;;;;7.97;5.40;;;3.50;96.30;;;;;;5064914;28;20021;-37
2021/03/19 01:02:31;;;;;;;7.43;5.32;;;3.50;96.40;;;;;;5064457;28;20159;-38
2021/03/19 01:04:57;;;;;;;8.18;5.20;;;3.50;96.50;;;;;;5064586;28;20115;-38
2021/03/19 01:07:22;;;;;;;11.02;6.40;;;3.40;96.50;;;;;;5064913;28;20118;-38
2021/03/19 01:09:48;;;;;;;9.82;6.55;;;3.40;96.70;;;;;;5064420;28;20369;-34
2021/03/19 01:12:14;;;;;;;8.15;5.50;;;3.30;96.70;;;;;;5064374;28;20059;-35
2021/03/19 01:14:39;;;;;;;8.55;7.18;;;3.30;96.70;;;;;;5064225;28;20024;-38
2021/03/19 01:17:05;;;;;;;10.18;6.70;;;3.30;96.70;;;;;;5064763;28;20017;-35
2021/03/19 01:19:31;;;;;;;9.68;6.45;;;3.30;96.80;;;;;;5064144;28;20103;-35
2021/03/19 01:21:56;;;;;;;8.73;6.50;;;3.20;96.70;;;;;;5064703;28;20111;-37
2021/03/19 01:24:34;;;;;;;10.40;6.55;;;3.20;96.80;;;;;;5064535;28;20198;-38
2021/03/19 01:26:59;;;;;;;7.65;6.88;;;3.20;96.90;;;;;;5064317;28;20033;-42
2021/03/19 01:29:25;;;;;;;11.20;7.88;;;3.20;97.00;;;;;;5064307;28;20047;-36
2021/03/19 01:31:53;;;;;;;14.52;8.25;;;3.10;97.00;;;;;;5064337;28;20413;-38
2021/03/19 01:34:19;;;;;;;10.70;6.90;;;3.10;97.30;;;;;;5063999;28;20032;-34
2021/03/19 01:36:44;;;;;;;9.60;6.43;;;3.10;97.10;;;;;;5063982;28;20036;-37
2021/03/19 01:39:13;;;;;;;10.68;7.68;;;3.10;97.10;;;;;;5063903;28;20048;-36
2021/03/19 01:41:44;;;;;;;12.57;8.20;;;3.10;97.20;;;;;;5063620;28;20036;-38
2021/03/19 01:44:13;;;;;;;12.23;7.47;;;3.00;97.20;;;;;;5064255;28;20043;-37
2021/03/19 01:47:17;;;;;;;12.25;8.07;;;3.00;97.20;;;;;;5063624;28;20163;-34
2021/03/19 01:50:20;;;;;;;11.45;7.75;;;2.90;97.30;;;;;;5044051;28;20049;-37
2021/03/19 01:53:23;;;;;;;10.82;7.93;;;2.90;97.30;;;;;;5063580;28;20063;-35
2021/03/19 01:56:26;;;;;;;12.90;8.75;;;2.80;97.30;;;;;;5063723;28;20048;-34
2021/03/19 01:59:28;;;;;;;10.45;8.40;;;2.80;97.50;;;;;;5056822;28;20080;-37
2021/03/19 02:02:31;;;;;;;15.43;8.82;;;2.80;97.50;;;;;;5063190;28;20115;-40
2021/03/19 02:05:37;;;;;;;13.00;8.23;;;2.80;97.50;;;;;;5044615;28;20035;-35
2021/03/19 02:08:41;;;;;;;13.15;8.25;;;2.70;97.50;;;;;;5063426;28;20198;-36
2021/03/19 02:11:43;;;;;;;13.75;8.70;;;2.70;97.60;;;;;;5064319;28;20036;-34
2021/03/19 02:14:47;;;;;;;12.65;8.43;;;2.70;97.70;;;;;;5054479;28;20047;-34
2021/03/19 02:17:50;;;;;;;15.20;8.45;;;2.60;97.70;;;;;;5063934;28;20072;-37
2021/03/19 02:20:52;;;;;;;12.18;8.68;;;2.60;97.70;;;;;;5064303;28;20084;-37
2021/03/19 02:23:55;;;;;;;11.68;8.55;;;2.60;97.80;;;;;;5063481;28;20093;-36
2021/03/19 02:26:58;;;;;;;19.33;10.82;;;2.50;97.90;;;;;;5063885;28;20203;-36
2021/03/19 02:30:01;;;;;;;15.02;9.77;;;2.50;97.90;;;;;;5063450;28;20494;-36
2021/03/19 02:32:28;;;;;;;14.65;8.85;;;2.50;97.90;;;;;;5064135;28;20090;-37
2021/03/19 02:35:14;;;;;;;14.18;9.45;;;2.50;97.90;;;;;;5064001;28;20486;-35
2021/03/19 02:37:40;;;;;;;13.27;9.80;;;2.40;98.00;;;;;;5063384;28;20456;-37
2021/03/19 02:40:10;;;;;;;12.82;9.38;;;2.40;98.00;;;;;;5063699;28;20032;-40
2021/03/19 02:42:35;;;;;;;19.13;9.95;;;2.40;98.00;;;;;;5063050;28;20052;-41
2021/03/19 02:45:02;;;;;;;18.23;11.18;;;2.40;98.00;;;;;;5064357;28;20453;-35
2021/03/19 02:47:27;;;;;;;16.95;10.23;;;2.40;98.10;;;;;;5063880;28;20075;-38
2021/03/19 02:49:53;;;;;;;15.98;10.02;;;2.40;98.10;;;;;;5063724;28;20024;-35
2021/03/19 02:52:23;;;;;;;15.70;9.98;;;2.40;98.10;;;;;;5063485;28;20586;-38
2021/03/19 02:54:49;;;;;;;13.10;9.35;;;2.40;98.10;;;;;;5063326;28;20123;-36
2021/03/19 02:57:15;;;;;;;13.63;9.35;;;2.40;98.10;;;;;;5063534;28;20028;-34
2021/03/19 02:59:41;;;;;;;12.80;8.43;;;2.30;98.10;;;;;;5063401;28;20021;-34
2021/03/19 03:02:07;;;;;;;13.40;9.93;;;2.30;98.10;;;;;;5063872;28;20399;-43
2021/03/19 03:04:32;;;;;;;16.17;9.85;;;2.30;98.10;;;;;;5063947;28;20031;-39
2021/03/19 03:06:58;;;;;;;16.05;9.57;;;2.30;98.10;;;;;;5067609;28;20387;-33
2021/03/19 03:09:31;;;;;;;12.70;9.38;;;2.30;98.20;;;;;;5067357;28;20020;-38
2021/03/19 03:11:58;;;;;;;15.20;10.15;;;2.20;98.20;;;;;;5067484;28;20257;-38
2021/03/19 03:14:31;;;;;;;13.20;9.07;;;2.20;98.20;;;;;;5066861;28;20020;-36
2021/03/19 03:16:59;;;;;;;12.85;9.27;;;2.20;98.20;;;;;;5067229;28;20028;-37
2021/03/19 03:19:25;;;;;;;15.45;10.38;;;2.20;98.20;;;;;;5066827;28;20037;-37
2021/03/19 03:21:52;;;;;;;16.45;9.52;;;2.20;98.20;;;;;;5066749;28;20027;-35
2021/03/19 03:24:18;;;;;;;13.93;9.75;;;2.20;98.20;;;;;;5066663;28;20116;-37
2021/03/19 03:26:43;;;;;;;15.98;9.25;;;2.10;98.20;;;;;;5066437;28;20120;-32
2021/03/19 03:29:10;;;;;;;14.02;8.57;;;2.10;98.30;;;;;;5066565;28;20017;-38
2021/03/19 03:31:37;;;;;;;14.75;9.93;;;2.10;98.30;;;;;;5066918;28;20044;-32
2021/03/19 03:34:03;;;;;;;14.35;9.23;;;2.10;98.30;;;;;;5066019;28;20107;-31
2021/03/19 03:36:29;;;;;;;15.73;8.68;;;2.00;98.30;;;;;;5066400;28;20125;-35
2021/03/19 03:38:58;;;;;;;17.08;9.90;;;2.00;98.30;;;;;;5066304;28;20052;-38
2021/03/19 03:41:26;;;;;;;13.65;8.30;;;2.00;98.30;;;;;;5066580;28;20048;-36
2021/03/19 03:43:55;;;;;;;14.05;9.52;;;2.00;98.30;;;;;;5066450;28;20082;-35
2021/03/19 03:46:24;;;;;;;12.93;9.30;;;2.00;98.30;;;;;;5065354;28;20071;-34
2021/03/19 03:48:50;;;;;;;14.85;9.23;;;2.00;98.40;;;;;;5066240;28;20031;-37
2021/03/19 03:51:16;;;;;;;12.10;8.55;;;1.90;98.30;;;;;;5065767;28;20024;-36
2021/03/19 03:53:42;;;;;;;13.73;8.68;;;1.90;98.30;;;;;;5065418;28;20044;-36
2021/03/19 03:56:11;;;;;;;13.40;8.15;;;1.90;98.30;;;;;;5065824;28;20029;-34
2021/03/19 03:58:37;;;;;;;17.45;9.45;;;1.90;98.30;;;;;;5066110;28;20028;-38
2021/03/19 04:01:04;;;;;;;16.80;9.75;;;1.90;98.30;;;;;;5065336;28;20032;-37
2021/03/19 04:03:30;;;;;;;12.75;8.93;;;1.80;98.30;;;;;;5065930;28;20029;-35
2021/03/19 04:05:55;;;;;;;14.90;10.30;;;1.80;98.30;;;;;;5065893;28;20119;-34
2021/03/19 04:08:24;;;;;;;15.55;8.75;;;1.80;98.30;;;;;;5065658;28;20029;-33
2021/03/19 04:10:51;;;;;;;13.90;9.68;;;1.80;98.40;;;;;;5065572;28;20907;-36
2021/03/19 04:13:17;;;;;;;13.05;8.48;;;1.80;98.40;;;;;;5065931;28;20024;-34
2021/03/19 04:15:43;;;;;;;16.23;9.27;;;1.70;98.40;;;;;;5065014;28;20029;-38
2021/03/19 04:18:11;;;;;;;19.20;10.05;;;1.70;98.40;;;;;;5065266;28;20788;-37
2021/03/19 04:20:38;;;;;;;15.52;9.32;;;1.70;98.40;;;;;;5065487;28;20376;-32
2021/03/19 04:23:04;;;;;;;17.15;9.75;;;1.70;98.40;;;;;;5063268;28;20025;-35
2021/03/19 04:25:30;;;;;;;15.15;9.60;;;1.60;98.40;;;;;;5065279;28;20044;-37
2021/03/19 04:28:01;;;;;;;15.48;10.00;;;1.70;98.40;;;;;;5065667;28;20501;-35
2021/03/19 04:30:36;;;;;;;13.77;9.00;;;1.60;98.40;;;;;;5065490;28;20033;-32
2021/03/19 04:33:02;;;;;;;17.15;9.27;;;1.60;98.40;;;;;;5064297;28;20498;-33
2021/03/19 04:35:30;;;;;;;12.25;8.75;;;1.60;98.40;;;;;;5065297;28;20024;-38
2021/03/19 04:37:59;;;;;;;20.65;8.38;;;1.60;98.40;;;;;;5065486;28;20029;-36
2021/03/19 04:40:29;;;;;;;12.95;8.38;;;1.60;98.40;;;;;;5065440;28;20024;-33
2021/03/19 04:42:55;;;;;;;15.38;9.23;;;1.60;98.40;;;;;;5064776;28;20028;-35
2021/03/19 04:45:22;;;;;;;12.70;8.10;;;1.50;98.40;;;;;;5064878;28;20032;-35
2021/03/19 04:47:47;;;;;;;14.98;7.85;;;1.50;98.40;;;;;;5064838;28;20115;-37
2021/03/19 04:50:14;;;;;;;14.40;8.57;;;1.50;98.40;;;;;;5064739;28;20115;-34
2021/03/19 04:52:40;;;;;;;19.67;9.52;;;1.50;98.40;;;;;;5065040;28;20086;-37
2021/03/19 04:55:08;;;;;;;15.15;8.32;;;1.50;98.40;;;;;;5064702;28;20045;-36
2021/03/19 04:57:37;;;;;;;15.57;9.02;;;1.50;98.40;;;;;;5064471;28;20050;-35
2021/03/19 05:00:06;;;;;;;12.75;8.55;;;1.50;98.30;;;;;;5064740;28;20017;-37
2021/03/19 05:02:37;;;;;;;15.63;9.63;;;1.40;98.30;;;;;;5064968;28;20036;-37
2021/03/19 05:05:05;;;;;;;16.17;8.57;;;1.40;98.30;;;;;;5064635;28;20583;-36
2021/03/19 05:07:31;;;;;;;21.30;10.60;;;1.40;98.30;;;;;;5064488;28;20069;-37
2021/03/19 05:09:57;;;;;;;18.38;9.25;;;1.40;98.30;;;;;;5065104;28;20128;-37
2021/03/19 05:12:22;;;;;;;18.00;10.07;;;1.40;98.30;;;;;;5063984;28;20492;-35
2021/03/19 05:14:48;;;;;;;13.95;9.18;;;1.40;98.30;;;;;;5064781;28;20096;-36
2021/03/19 05:17:14;;;;;;;20.90;9.30;;;1.30;98.30;;;;;;5064027;28;20108;-36
2021/03/19 05:19:39;;;;;;;17.33;9.45;;;1.30;98.40;;;;;;5064429;28;20434;-35
2021/03/19 05:22:05;;;;;;;19.10;9.35;;;1.30;98.40;;;;;;5065036;28;20146;-34
2021/03/19 05:24:30;;;;;;;15.88;9.77;;;1.30;98.40;;;;;;5063715;28;20051;-34
2021/03/19 05:26:59;;;;;;;15.15;8.35;;;1.20;98.40;;;;;;5064427;28;20032;-34
2021/03/19 05:29:24;;;;;;;15.90;8.68;;;1.20;98.40;;;;;;5064496;28;20025;-37
2021/03/19 05:31:50;;;;;;;16.65;9.65;;;1.20;98.40;;;;;;5064054;28;20035;-33
2021/03/19 05:34:15;;;;;;;19.70;9.10;;;1.20;98.40;;;;;;5064608;28;20016;-35
2021/03/19 05:36:41;;;;;;;17.08;9.10;;;1.20;98.50;;;;;;5064399;28;20475;-37
2021/03/19 05:39:08;;;;;;;20.25;9.40;;;1.20;98.50;;;;;;5063689;28;20070;-37
2021/03/19 05:41:36;;;;;;;18.63;9.32;;;1.20;98.40;;;;;;5064139;28;20050;-34
2021/03/19 05:44:10;;;;;;;19.35;9.25;;;1.20;98.40;;;;;;5064176;28;20393;-35
2021/03/19 05:46:46;;;;;;;12.40;8.10;;;1.20;98.40;;;;;;5063357;28;20079;-36
2021/03/19 05:49:20;;;;;;;15.55;9.27;;;1.10;98.40;;;;;;5063774;28;20104;-36
2021/03/19 05:52:08;;;;;;;14.45;8.27;;;1.10;98.40;;;;;;5063988;28;20035;-37
2021/03/19 05:54:34;;;;;;;17.42;8.52;;;1.10;98.40;;;;;;5055556;28;20143;-37
2021/03/19 05:57:08;;;;;;;12.38;8.40;;;1.10;98.40;;;;;;5064168;28;20177;-36
2021/03/19 05:59:35;;;;;;;15.02;9.02;;;1.10;98.50;;;;;;5063975;28;20029;-34
2021/03/19 06:02:02;;;;;;;14.48;8.82;;;1.10;98.50;;;;;;5064228;28;20021;-33
2021/03/19 06:04:30;;;;;;;14.30;8.68;;;1.10;98.50;;;;;;5063967;28;20074;-35
2021/03/19 06:07:00;;;;;;;15.88;8.90;;;1.10;98.50;;;;;;5064234;28;20038;-35
2021/03/19 06:09:33;;;;;;;15.88;8.40;;;1.10;98.50;;;;;;5063859;28;20400;-36
2021/03/19 06:12:07;;;;;;;15.50;9.30;;;1.10;98.50;;;;;;5053980;28;20048;-36
2021/03/19 06:14:54;;;;;;;15.27;8.90;;;1.10;98.50;;;;;;5063845;28;20021;-37
2021/03/19 06:17:28;;;;;;;14.45;9.23;;;1.10;98.60;;;;;;5054969;28;20195;-34
2021/03/19 06:20:00;;;;;;;12.45;8.32;;;1.10;98.60;;;;;;5063791;28;20025;-37
2021/03/19 06:22:37;;;;;;;16.55;8.27;;;1.20;98.60;;;;;;5063942;28;20036;-34
2021/03/19 06:25:11;;;;;;;18.48;9.32;;;1.20;98.60;;;;;;5063844;28;20047;-35
2021/03/19 06:28:12;;;;;;;19.33;9.25;;;1.20;98.60;;;;;;5063976;28;20115;-36
2021/03/19 06:30:41;;;;;;;15.07;8.45;;;1.20;98.70;;;;;;5064556;28;20031;-34
2021/03/19 06:33:12;;;;;;;19.10;9.02;;;1.20;98.90;;;;;;5064468;28;20075;-34
2021/03/19 06:35:41;;;;;;;14.65;8.38;;;1.30;98.70;;;;;;5063884;28;20090;-35
2021/03/19 06:38:31;;;;;;;14.32;8.95;;;1.40;98.70;;;;;;5064239;28;20605;-35
2021/03/19 06:41:16;;;;;;;14.15;8.25;;;1.40;98.70;;;;;;5067494;28;20040;-34
2021/03/19 06:43:42;;;;;;;15.35;9.35;;;1.40;98.70;;;;;;5067284;28;20170;-37
2021/03/19 06:46:14;;;;;;;18.17;9.90;;;1.50;98.70;;;;;;5067587;28;20108;-35
2021/03/19 06:48:44;;;;;;;17.70;9.88;;;1.50;98.60;;;;;;5067191;28;20040;-37
2021/03/19 06:51:29;;;;;;;20.77;10.52;;;1.60;98.60;;;;;;5067927;28;20027;-34
2021/03/19 06:54:08;;;;;;;17.35;8.85;;;1.70;98.60;;;;;;5067899;28;20089;-37
2021/03/19 06:56:35;;;;;;;14.45;8.82;;;1.70;98.50;;;;;;5067199;28;20051;-38
2021/03/19 06:59:24;;;;;;;11.57;8.55;;;1.70;98.50;;;;;;5067907;28;20067;-35
2021/03/19 07:01:49;;;;;;;13.88;8.48;;;1.80;98.50;;;;;;5068051;28;20116;-36
2021/03/19 07:04:53;;;;;;;14.40;8.85;;;1.80;98.50;;;;;;5067003;28;20104;-35
2021/03/19 07:07:30;;;;;;;16.27;8.50;;;1.80;98.40;;;;;;5067356;28;20052;-35
2021/03/19 07:10:21;;;;;;;13.60;8.10;;;1.90;98.40;;;;;;5067391;28;20032;-37
2021/03/19 07:13:05;;;;;;;18.48;8.75;;;1.90;98.30;;;;;;5062283;28;20036;-32
2021/03/19 07:15:54;;;;;;;15.40;9.90;;;2.00;98.30;;;;;;5061984;28;20038;-38
2021/03/19 07:18:31;;;;;;;15.63;8.40;;;2.00;98.30;;;;;;5066744;28;20025;-37
2021/03/19 07:21:34;;;;;;;20.55;8.52;;;2.10;98.20;;;;;;5064599;28;20028;-38
2021/03/19 07:24:08;;;;;;;;;;;2.20;98.20;;;;;;5064379;28;20157;-35
2021/03/19 07:26:35;;;;;;;;;;;2.20;98.10;;;;;;5066722;28;20371;-37
2021/03/19 07:29:44;;;;;;;12.20;7.53;;;2.20;98.00;;;;;;5066697;28;19908;-39
2021/03/19 07:32:25;;;;;;;15.43;7.93;;;2.20;98.00;;;;;;5065899;28;20063;-35
2021/03/19 07:35:27;;;;;;;11.23;7.10;;;2.30;97.90;;;;;;5057055;28;20387;-35
2021/03/19 07:38:01;;;;;;;14.40;7.00;;;2.30;97.90;;;;;;5064994;28;20051;-37
2021/03/19 07:40:52;;;;;;;12.95;6.72;;;2.40;97.80;;;;;;5067075;28;20237;-38
2021/03/19 07:43:35;;;;;;;8.48;6.20;;;2.50;97.50;;;;;;5066718;28;20067;-34
2021/03/19 07:46:19;;;;;;;9.60;5.93;;;2.60;97.50;;;;;;5067076;28;20040;-32
2021/03/19 07:49:11;;;;;;;10.15;6.90;;;2.70;97.70;;;;;;5066475;28;20029;-34
2021/03/19 07:52:12;;;;;;;8.50;5.60;;;2.80;97.10;;;;;;5051427;28;20036;-37
2021/03/19 07:54:48;;;;;;;8.45;5.25;;;2.80;96.90;;;;;;5065779;28;20119;-36
2021/03/19 07:57:39;;;;;;;9.43;5.15;;;2.90;96.90;;;;;;5064104;28;20013;-34
2021/03/19 08:00:22;;;;;;;7.70;4.95;;;3.00;96.70;;;;;;5063085;28;20437;-36
2021/03/19 08:03:07;;;;;;;7.68;4.95;;;3.10;96.40;;;;;;5066625;28;20356;-38
2021/03/19 08:05:46;;;;;;;7.95;4.40;;;3.10;96.00;;;;;;5065450;28;20087;-36
2021/03/19 08:08:18;;;;;;;6.78;4.38;;;3.20;95.90;;;;;;5065985;28;20032;-36
2021/03/19 08:11:19;;;;;;;6.68;3.90;;;3.30;95.30;;;;;;5066302;28;20029;-37
2021/03/19 08:13:50;;;;;;;7.13;3.80;;;3.40;95.10;;;;;;5065695;28;20024;-33
2021/03/19 08:16:30;;;;;;;7.25;3.78;;;3.50;94.70;;;;;;5066329;28;20403;-38
2021/03/19 08:19:04;;;;;;;6.95;3.35;;;3.50;94.10;;;;;;5066343;28;20024;-32
2021/03/19 08:21:39;;;;;;;5.03;3.30;;;3.60;93.70;;;;;;5066462;28;20344;-38
2021/03/19 08:24:10;;;;;;;6.28;3.42;;;3.70;93.80;;;;;;5066314;28;20139;-36
2021/03/19 08:26:49;;;;;;;6.85;3.38;;;3.70;93.50;;;;;;5066168;28;20032;-34
2021/03/19 08:29:40;;;;;;;6.38;2.97;;;3.80;93.00;;;;;;5065613;28;20040;-35
2021/03/19 08:32:46;;;;;;;5.30;2.80;;;3.90;92.40;;;;;;5065954;28;20440;-34
2021/03/19 08:35:23;;;;;;;5.55;2.50;;;4.00;91.20;;;;;;5065529;28;20119;-34
2021/03/19 08:38:15;;;;;;;5.70;2.15;;;4.20;90.40;;;;;;5066100;28;20034;-33
2021/03/19 08:40:53;;;;;;;5.35;2.40;;;4.20;90.70;;;;;;5065400;28;20161;-34
2021/03/19 08:43:47;;;;;;;7.57;2.80;;;4.30;90.70;;;;;;5045527;28;20025;-38
2021/03/19 08:46:32;;;;;;;3.80;2.33;;;4.40;90.10;;;;;;5064533;28;20036;-39
2021/03/19 08:49:01;;;;;;;6.68;2.63;;;4.40;89.60;;;;;;5065107;28;20041;-35
2021/03/19 08:51:26;;;;;;;4.78;2.60;;;4.50;88.80;;;;;;5065433;28;20032;-36
2021/03/19 08:54:31;;;;;;;3.10;2.22;;;4.60;88.90;;;;;;5065653;28;20564;-36
2021/03/19 08:57:08;;;;;;;2.65;2.40;;;4.60;87.90;;;;;;5045969;28;20044;-35
2021/03/19 08:59:34;;;;;;;5.95;2.45;;;4.70;87.50;;;;;;5065992;28;20036;-38
2021/03/19 09:02:18;;;;;;;7.82;2.45;;;4.80;87.50;;;;;;5063967;28;20090;-37
2021/03/19 09:04:52;;;;;;;5.60;2.97;;;4.80;86.10;;;;;;5063985;28;20125;-37
2021/03/19 09:07:29;;;;;;;4.53;2.90;;;4.90;85.00;;;;;;5064913;28;20043;-36
2021/03/19 09:09:58;;;;;;;5.20;3.28;;;4.90;85.10;;;;;;5065335;28;20024;-34
2021/03/19 09:12:30;;;;;;;5.90;2.75;;;5.00;85.10;;;;;;5064960;28;20028;-33
2021/03/19 09:15:14;;;;;;;4.32;2.85;;;5.10;84.50;;;;;;5065753;28;20027;-37
2021/03/19 09:17:43;;;;;;;5.28;2.95;;;5.20;84.70;;;;;;5064297;28;20112;-33
2021/03/19 09:20:38;;;;;;;5.35;3.05;;;5.20;85.00;;;;;;5065487;28;20127;-36
2021/03/19 09:23:09;;;;;;;6.97;2.72;;;5.30;84.00;;;;;;5063113;28;20531;-35
2021/03/19 09:26:04;;;;;;;4.38;2.78;;;5.40;83.20;;;;;;5064427;28;20551;-37
2021/03/19 09:28:59;;;;;;;4.82;2.70;;;5.40;83.00;;;;;;5054672;28;20036;-36
2021/03/19 09:31:25;;;;;;;4.20;2.85;;;5.50;82.90;;;;;;5062057;28;20028;-37
2021/03/19 09:33:50;;;;;;;4.80;2.72;;;5.60;82.60;;;;;;5065262;28;20027;-38
2021/03/19 09:36:53;;;;;;;5.80;3.03;;;5.60;82.10;;;;;;5064701;28;20017;-36
2021/03/19 09:39:45;;;;;;;6.43;3.17;;;5.70;82.40;;;;;;5057640;28;20048;-36
2021/03/19 09:42:17;;;;;;;5.93;3.35;;;5.70;82.90;;;;;;5058358;28;20024;-35
2021/03/19 09:44:52;;;;;;;4.97;3.53;;;5.80;81.40;;;;;;5064406;28;20486;-36
2021/03/19 09:47:34;;;;;;;4.00;3.20;;;5.80;82.40;;;;;;5064474;28;20035;-35
2021/03/19 09:50:16;;;;;;;7.38;3.75;;;5.80;81.30;;;;;;5064984;28;20437;-38
2021/03/19 09:53:00;;;;;;;7.35;4.47;;;5.90;81.30;;;;;;5063992;28;20036;-38
2021/03/19 09:55:35;;;;;;;6.63;4.28;;;5.90;80.80;;;;;;5064578;28;20048;-37
2021/03/19 09:58:23;;;;;;;7.65;3.92;;;5.90;80.70;;;;;;5064535;28;20138;-39
2021/03/19 10:00:50;;;;;;;7.60;3.47;;;6.00;81.40;;;;;;5064621;28;20144;-38
2021/03/19 10:03:16;;;;;;;6.55;3.22;;;6.00;80.60;;;;;;5064813;28;20113;-37
2021/03/19 10:05:47;;;;;;;5.80;3.13;;;6.10;79.60;;;;;;5064232;28;20052;-38
2021/03/19 10:08:28;;;;;;;7.95;3.40;;;6.10;78.30;;;;;;5064272;28;20231;-35
2021/03/19 10:11:10;;;;;;;4.93;3.58;;;6.20;78.80;;;;;;5064947;28;20047;-38
2021/03/19 10:13:39;;;;;;;5.57;3.40;;;6.20;79.30;;;;;;5065269;28;20476;-35
2021/03/19 10:16:05;;;;;;;7.05;3.67;;;6.20;79.80;;;;;;5068505;28;20028;-37
2021/03/19 10:18:37;;;;;;;8.43;3.67;;;6.20;79.10;;;;;;5068679;28;20024;-37
2021/03/19 10:21:11;;;;;;;6.47;3.45;;;6.30;79.00;;;;;;5067850;28;20388;-37
2021/03/19 10:23:41;;;;;;;5.90;3.30;;;6.30;77.70;;;;;;5068629;28;20756;-39
2021/03/19 10:26:09;;;;;;;5.43;3.50;;;6.30;78.00;;;;;;5067262;28;20198;-36
2021/03/19 10:28:39;;;;;;;7.03;3.58;;;6.40;77.60;;;;;;5067320;28;20020;-36
2021/03/19 10:31:15;;;;;;;4.88;3.40;;;6.50;77.60;;;;;;5068124;28;20067;-38
2021/03/19 10:33:55;;;;;;;5.65;3.28;;;6.50;77.00;;;;;;5067720;28;20012;-37
2021/03/19 10:36:39;;;;;;;6.80;3.55;;;6.60;75.60;;;;;;5068010;28;20039;-36
2021/03/19 10:39:30;;;;;;;7.68;3.78;;;6.70;75.20;;;;;;5068223;28;20044;-35
2021/03/19 10:42:36;;;;;;;8.02;3.80;;;6.60;74.20;;;;;;5047675;28;20043;-35
2021/03/19 10:45:17;;;;;;;6.47;3.55;;;6.60;74.50;;;;;;5067852;28;20082;-37
2021/03/19 10:48:04;;;;;;;6.88;3.20;;;6.60;75.70;;;;;;5068005;28;20032;-36
2021/03/19 10:50:35;;;;;;;7.05;3.42;;;6.70;75.90;;;;;;5067748;28;20021;-37
2021/03/19 10:53:11;;;;;;;4.20;2.90;;;6.70;75.70;;;;;;5068114;28;20499;-38
2021/03/19 10:55:37;;;;;;;5.72;3.63;;;6.80;73.40;;;;;;5067403;28;20404;-33
2021/03/19 10:58:33;;;;;;;5.32;3.13;;;6.80;74.10;;;;;;5068179;28;20055;-37
2021/03/19 11:00:58;;;;;;;3.72;2.90;;;6.80;74.40;;;;;;5066723;28;20748;-34
2021/03/19 11:03:43;;;;;;;4.93;2.90;;;6.80;73.50;;;;;;5067392;28;20024;-36
2021/03/19 11:06:12;;;;;;;5.95;3.00;;;6.80;74.20;;;;;;5067461;28;20054;-36
2021/03/19 11:08:39;;;;;;;6.70;3.35;;;6.80;74.60;;;;;;5067727;28;20017;-34
2021/03/19 11:11:31;;;;;;;5.38;3.17;;;6.90;74.40;;;;;;5066975;28;20072;-38
2021/03/19 11:14:05;;;;;;;4.57;2.97;;;6.90;74.80;;;;;;5063771;28;20111;-39
2021/03/19 11:16:35;;;;;;;5.15;2.90;;;6.90;74.90;;;;;;5065554;28;20031;-37
2021/03/19 11:19:08;;;;;;;3.95;2.70;;;7.00;73.50;;;;;;5064848;28;20054;-37
2021/03/19 11:21:37;;;;;;;6.03;3.58;;;7.00;72.80;;;;;;5067071;28;20060;-38
2021/03/19 11:24:05;;;;;;;5.45;3.10;;;7.00;72.60;;;;;;5061977;28;20032;-35
2021/03/19 11:26:35;;;;;;;4.28;2.90;;;7.10;72.20;;;;;;5064961;28;20052;-35
2021/03/19 11:29:20;;;;;;;4.30;2.70;;;7.10;73.00;;;;;;5066528;28;20031;-36
2021/03/19 11:32:25;;;;;;;4.53;2.75;;;7.10;72.60;;;;;;5065505;28;20052;-37
2021/03/19 11:34:56;;;;;;;4.55;2.90;;;7.20;71.40;;;;;;5066157;28;20032;-37
2021/03/19 11:37:25;;;;;;;4.28;3.33;;;7.20;71.60;;;;;;5062189;28;20060;-35
2021/03/19 11:40:31;;;;;;;6.38;3.63;;;7.30;71.60;;;;;;5065840;28;20130;-37
2021/03/19 11:43:00;;;;;;;5.15;3.10;;;7.40;71.70;;;;;;5056647;28;20503;-35
2021/03/19 11:45:36;;;;;;;4.68;2.88;;;7.40;71.80;;;;;;5065319;28;20113;-36
2021/03/19 11:48:06;;;;;;;10.20;3.92;;;7.40;71.60;;;;;;5065368;28;20025;-34
2021/03/19 11:50:37;;;;;;;3.50;2.50;;;7.50;70.60;;;;;;5064760;28;20048;-37
2021/03/19 11:53:06;;;;;;;3.42;2.17;;;7.50;70.00;;;;;;5064615;28;20020;-35
2021/03/19 11:55:43;;;;;;;6.80;2.50;;;7.50;68.70;;;;;;5064424;28;20056;-36
2021/03/19 11:58:11;;;;;;;3.80;2.70;;;7.60;67.90;;;;;;5062767;28;20031;-35
2021/03/19 12:00:39;;;;;;;6.40;3.40;;;7.60;66.50;;;;;;5064955;28;20041;-35
2021/03/19 12:03:10;;;;;;;3.13;2.50;;;7.70;66.70;;;;;;5066063;28;20085;-38
2021/03/19 12:05:36;;;;;;;4.68;2.60;;;7.70;66.40;;;;;;5060809;28;20444;-34
2021/03/19 12:08:02;;;;;;;4.50;2.45;;;7.70;67.30;;;;;;5065779;28;20107;-36
2021/03/19 12:10:29;;;;;;;5.43;2.70;;;7.80;67.30;;;;;;5066626;28;20055;-38
2021/03/19 12:13:00;;;;;;;5.65;2.53;;;7.80;65.40;;;;;;5063788;28;20425;-37
2021/03/19 12:15:28;;;;;;;5.22;2.65;;;7.90;65.50;;;;;;5065501;28;20051;-35
2021/03/19 12:17:54;;;;;;;3.35;2.45;;;7.90;65.20;;;;;;5066810;28;20036;-36
2021/03/19 12:20:20;;;;;;;4.50;1.92;;;7.90;63.70;;;;;;5065672;28;20060;-39
2021/03/19 12:22:46;;;;;;;4.72;2.40;;;7.90;63.20;;;;;;5066442;28;20024;-38
2021/03/19 12:25:17;;;;;;;6.30;2.92;;;7.90;62.50;;;;;;5065635;28;20384;-38
2021/03/19 12:27:43;;;;;;;3.85;1.98;;;7.90;63.70;;;;;;5065482;28;20028;-37
2021/03/19 12:30:09;;;;;;;2.78;2.00;;;7.90;63.50;;;;;;5065087;28;20595;-33
2021/03/19 12:32:35;;;;;;;5.18;2.30;;;7.90;64.00;;;;;;5065322;28;20029;-34
2021/03/19 12:35:00;;;;;;;5.95;2.30;;;8.00;64.00;;;;;;5063923;28;20023;-38
2021/03/19 12:37:26;;;;;;;5.68;2.30;;;8.00;63.30;;;;;;5064933;28;20035;-37
2021/03/19 12:39:51;;;;;;;2.67;1.75;;;8.10;62.10;;;;;;5065266;28;20399;-37
2021/03/19 12:42:17;;;;;;;3.13;2.00;;;8.10;62.30;;;;;;5064836;28;20387;-37
2021/03/19 12:44:43;;;;;;;4.80;2.15;;;8.10;61.90;;;;;;5065712;28;20024;-38
2021/03/19 12:47:08;;;;;;;2.17;1.90;;;8.20;61.90;;;;;;5065768;28;20139;-37
2021/03/19 12:49:34;;;;;;;5.32;2.25;;;8.20;61.80;;;;;;5064918;28;20701;-34
2021/03/19 12:52:03;;;;;;;3.35;1.92;;;8.20;62.50;;;;;;5065859;28;20063;-38
2021/03/19 12:54:28;;;;;;;2.22;1.50;;;8.20;63.00;;;;;;5065009;28;20044;-34
2021/03/19 12:56:54;;;;;;;2.47;1.58;;;8.30;62.80;;;;;;5066082;28;20423;-37
2021/03/19 12:59:19;;;;;;;2.88;1.50;;;8.30;62.60;;;;;;5064660;28;20552;-38
2021/03/19 13:01:51;;;;;;;2.13;1.50;;;8.30;62.60;;;;;;5065105;28;20488;-35
2021/03/19 13:04:16;;;;;;;2.22;1.35;;;8.40;62.50;;;;;;5064840;28;20486;-37
2021/03/19 13:06:42;;;;;;;3.00;1.60;;;8.40;62.90;;;;;;5064874;28;20033;-38
2021/03/19 13:09:11;;;;;;;2.75;1.70;;;8.40;62.40;;;;;;5064507;28;20483;-39
2021/03/19 13:11:37;;;;;;;2.72;1.63;;;8.50;63.00;;;;;;5064695;28;20029;-36
2021/03/19 13:14:03;;;;;;;3.85;1.85;;;8.50;61.90;;;;;;5064896;28;20040;-35
2021/03/19 13:16:28;;;;;;;2.65;1.70;;;8.50;60.80;;;;;;5065017;28;20125;-37
2021/03/19 13:18:54;;;;;;;2.83;1.52;;;8.60;61.40;;;;;;5064655;28;20593;-36
2021/03/19 13:21:20;;;;;;;3.20;1.70;;;8.60;61.00;;;;;;5064599;28;20640;-34
2021/03/19 13:23:45;;;;;;;3.63;1.58;;;8.70;61.40;;;;;;5064297;28;20056;-38
2021/03/19 13:26:11;;;;;;;4.07;1.80;;;8.80;60.80;;;;;;5064479;28;20146;-34
2021/03/19 13:28:36;;;;;;;4.38;1.42;;;8.90;60.80;;;;;;5064729;28;20287;-38